createdAt,value
2023-12-02T00:03:59.738Z,54.05
2023-12-02T00:09:02.871Z,54.02
2023-12-02T00:14:07.225Z,54.19
2023-12-02T00:19:10.107Z,54.26
2023-12-02T00:24:12.998Z,54.45
2023-12-02T00:29:17.368Z,54.97
2023-12-02T00:34:20.285Z,55.02
2023-12-02T00:39:23.152Z,55.49
2023-12-02T00:44:27.394Z,55.90
2023-12-02T00:49:30.222Z,55.95
2023-12-02T00:54:35.300Z,56.18
2023-12-02T00:59:39.977Z,56.21
2023-12-02T01:04:42.916Z,56.71
2023-12-02T01:09:45.792Z,56.97
2023-12-02T01:14:49.963Z,57.12
2023-12-02T01:19:52.804Z,57.30
2023-12-02T01:24:55.689Z,57.34
2023-12-02T01:29:59.975Z,57.47
2023-12-02T01:35:03.045Z,57.52
2023-12-02T01:40:06.839Z,57.89
2023-12-02T01:45:12.038Z,58.05
2023-12-02T01:50:18.033Z,58.12
2023-12-02T01:55:21.138Z,58.05
2023-12-02T02:00:25.601Z,58.28
2023-12-02T02:05:29.018Z,58.40
2023-12-02T02:10:31.850Z,58.47
2023-12-02T02:15:36.120Z,58.66
2023-12-02T02:20:38.972Z,58.78
2023-12-02T02:25:43.122Z,58.99
2023-12-02T02:30:45.996Z,59.22
2023-12-02T02:35:49.160Z,59.48
2023-12-02T02:40:53.482Z,59.75
2023-12-02T02:45:56.296Z,60.14
2023-12-02T02:50:59.294Z,60.05
2023-12-02T02:56:03.404Z,60.06
2023-12-02T03:01:06.516Z,60.13
2023-12-02T03:06:10.285Z,60.19
2023-12-02T03:11:14.393Z,60.44
2023-12-02T03:16:17.179Z,60.46
2023-12-02T03:21:20.497Z,60.59
2023-12-02T03:26:27.493Z,60.89
2023-12-02T03:31:30.334Z,60.96
2023-12-02T03:36:33.169Z,60.98
2023-12-02T03:41:37.317Z,61.11
2023-12-02T03:46:41.879Z,61.11
2023-12-02T03:51:44.716Z,61.10
2023-12-02T03:56:49.097Z,61.26
2023-12-02T04:01:52.848Z,61.25
2023-12-02T04:06:55.840Z,61.46
2023-12-02T04:12:00.070Z,61.45
2023-12-02T04:17:03.165Z,61.46
2023-12-02T04:22:05.937Z,61.55
2023-12-02T04:27:10.283Z,61.65
2023-12-02T04:32:13.283Z,61.71
2023-12-02T04:37:16.336Z,61.59
2023-12-02T04:42:20.516Z,61.67
2023-12-02T04:47:23.312Z,61.68
2023-12-02T04:52:26.117Z,61.95
2023-12-02T04:57:30.374Z,61.92
2023-12-02T05:02:33.211Z,62.18
2023-12-02T05:07:36.004Z,62.09
2023-12-02T05:12:40.199Z,62.25
2023-12-02T05:17:43.316Z,62.24
2023-12-02T05:22:49.173Z,62.27
2023-12-02T05:27:54.223Z,62.33
2023-12-02T05:32:57.348Z,62.42
2023-12-02T05:38:00.183Z,62.25
2023-12-02T05:43:04.482Z,62.46
2023-12-02T05:48:08.071Z,62.40
2023-12-02T05:53:10.979Z,62.61
2023-12-02T05:58:15.112Z,62.75
2023-12-02T06:03:18.009Z,62.70
2023-12-02T06:08:20.875Z,62.84
2023-12-02T06:13:25.041Z,62.89
2023-12-02T06:18:28.022Z,62.88
2023-12-02T06:23:30.954Z,62.78
2023-12-02T06:28:35.273Z,62.97
2023-12-02T06:33:38.209Z,62.81
2023-12-02T06:38:41.089Z,63.10
2023-12-02T06:43:45.304Z,63.19
2023-12-02T06:48:48.551Z,62.98
2023-12-02T06:53:51.406Z,63.20
2023-12-02T06:58:55.747Z,63.16
2023-12-02T07:04:00.167Z,63.05
2023-12-02T07:09:03.159Z,63.02
2023-12-02T07:14:07.490Z,63.18
2023-12-02T07:19:10.472Z,63.17
2023-12-02T07:24:13.379Z,63.18
2023-12-02T07:29:17.700Z,63.25
2023-12-02T07:34:20.687Z,63.20
2023-12-02T07:39:23.499Z,63.36
2023-12-02T07:44:27.673Z,63.37
2023-12-02T07:49:30.546Z,63.30
2023-12-02T07:54:33.526Z,63.40
2023-12-02T07:59:37.699Z,63.40
2023-12-02T08:04:40.636Z,59.58
2023-12-02T08:09:43.758Z,40.89
2023-12-02T08:14:48.050Z,43.27
2023-12-02T08:19:51.355Z,45.07
2023-12-02T08:24:54.918Z,46.33
2023-12-02T08:29:59.351Z,47.07
2023-12-02T08:35:02.921Z,48.21
2023-12-02T08:40:07.153Z,48.99
2023-12-02T08:45:12.202Z,49.75
2023-12-02T08:50:15.093Z,50.51
2023-12-02T08:55:18.894Z,51.00
2023-12-02T09:00:23.367Z,51.63
2023-12-02T09:05:26.305Z,52.07
2023-12-02T09:10:29.497Z,52.35
2023-12-02T09:15:44.254Z,52.75
2023-12-02T09:20:49.011Z,53.04
2023-12-02T09:25:52.900Z,53.14
2023-12-02T09:31:09.761Z,53.52
2023-12-02T09:36:33.620Z,53.79
2023-12-02T09:41:45.531Z,54.10
2023-12-02T09:46:58.937Z,54.24
2023-12-02T09:52:17.719Z,54.37
2023-12-02T09:57:36.941Z,54.48
2023-12-02T10:03:04.764Z,54.58
2023-12-02T10:08:15.051Z,54.83
2023-12-02T10:13:24.879Z,54.94
2023-12-02T10:18:37.192Z,54.91
2023-12-02T10:23:53.388Z,55.06
2023-12-02T10:29:10.256Z,54.96
2023-12-02T10:34:24.633Z,55.12
2023-12-02T10:39:41.870Z,55.04
2023-12-02T10:44:46.122Z,55.05
2023-12-02T10:49:52.186Z,55.13
2023-12-02T10:54:59.710Z,55.15
2023-12-02T11:00:07.892Z,55.10
2023-12-02T11:05:22.483Z,55.14
2023-12-02T11:10:35.143Z,55.14
2023-12-02T11:16:01.518Z,55.30
2023-12-02T11:21:08.730Z,55.18
2023-12-02T11:26:25.239Z,55.22
2023-12-02T11:31:44.355Z,55.26
2023-12-02T11:36:56.330Z,55.54
2023-12-02T11:42:10.218Z,55.83
2023-12-02T11:47:28.900Z,56.12
2023-12-02T11:52:48.182Z,56.21
2023-12-02T11:58:05.477Z,56.19
2023-12-02T12:03:27.600Z,56.27
2023-12-02T12:08:40.824Z,56.45
2023-12-02T12:13:45.198Z,56.32
2023-12-02T12:18:48.113Z,56.36
2023-12-02T12:23:52.386Z,56.40
2023-12-02T12:28:55.416Z,56.45
2023-12-02T12:33:59.218Z,56.55
2023-12-02T12:39:04.325Z,56.61
2023-12-02T12:44:08.367Z,56.59
2023-12-02T12:49:15.253Z,56.58
2023-12-02T12:54:25.603Z,56.69
2023-12-02T12:59:32.538Z,56.60
2023-12-02T13:04:38.014Z,56.62
2023-12-02T13:09:44.606Z,56.65
2023-12-02T13:14:50.661Z,56.60
2023-12-02T13:19:58.375Z,56.72
2023-12-02T13:25:10.125Z,56.58
2023-12-02T13:30:13.383Z,56.65
2023-12-02T13:35:17.460Z,56.63
2023-12-02T13:40:29.202Z,56.75
2023-12-02T13:45:34.912Z,56.80
2023-12-02T13:50:48.897Z,56.96
2023-12-02T13:56:07.243Z,57.01
2023-12-02T14:01:21.161Z,57.05
2023-12-02T14:06:29.394Z,56.89
2023-12-02T14:11:47.104Z,57.00
2023-12-02T14:17:04.876Z,56.85
2023-12-02T14:22:38.142Z,56.94
2023-12-02T14:28:04.055Z,57.16
2023-12-02T14:33:32.454Z,57.38
2023-12-02T14:39:07.805Z,57.43
2023-12-02T14:44:25.972Z,57.57
2023-12-02T14:49:30.583Z,57.64
2023-12-02T14:54:35.568Z,57.75
2023-12-02T14:59:39.936Z,57.85
2023-12-02T15:04:43.924Z,57.88
2023-12-02T15:09:47.286Z,57.96
2023-12-02T15:14:51.749Z,57.88
2023-12-02T15:19:54.985Z,57.92
2023-12-02T15:24:57.788Z,57.85
2023-12-02T15:30:03.213Z,57.86
2023-12-02T15:35:07.721Z,58.09
2023-12-02T15:40:11.672Z,58.01
2023-12-02T15:45:16.144Z,58.15
2023-12-02T15:50:19.085Z,58.20
2023-12-02T15:55:22.301Z,58.00
2023-12-02T16:00:27.196Z,57.90
2023-12-02T16:05:32.146Z,57.69
2023-12-02T16:10:35.423Z,57.69
2023-12-02T16:15:41.478Z,57.72
2023-12-02T16:20:45.664Z,57.70
2023-12-02T16:25:48.942Z,57.84
2023-12-02T16:30:56.754Z,57.84
2023-12-02T16:36:01.441Z,57.84
2023-12-02T16:41:05.041Z,57.58
2023-12-02T16:46:09.743Z,57.37
2023-12-02T16:51:13.295Z,57.28
2023-12-02T16:56:21.673Z,56.88
2023-12-02T17:01:29.212Z,57.53
2023-12-02T17:06:32.323Z,58.20
2023-12-02T17:11:40.547Z,58.22
2023-12-02T17:17:08.458Z,58.40
2023-12-02T17:22:16.978Z,58.38
2023-12-02T17:27:40.891Z,58.29
2023-12-02T17:32:45.481Z,58.30
2023-12-02T17:37:48.644Z,58.14
2023-12-02T17:42:51.522Z,58.11
2023-12-02T17:47:56.275Z,58.20
2023-12-02T17:52:59.726Z,58.18
2023-12-02T17:58:04.178Z,58.14
2023-12-02T18:03:08.716Z,58.22
2023-12-02T18:08:11.970Z,58.28
2023-12-02T18:13:15.224Z,58.09
2023-12-02T18:18:20.068Z,57.88
2023-12-02T18:23:24.532Z,57.61
2023-12-02T18:28:27.658Z,57.64
2023-12-02T18:33:32.587Z,57.52
2023-12-02T18:38:35.694Z,57.48
2023-12-02T18:43:39.503Z,57.42
2023-12-02T18:48:43.687Z,57.34
2023-12-02T18:53:46.613Z,57.19
2023-12-02T18:58:49.784Z,57.11
2023-12-02T19:03:55.794Z,56.82
2023-12-02T19:08:58.857Z,56.72
2023-12-02T19:14:01.933Z,56.33
2023-12-02T19:19:12.578Z,56.28
2023-12-02T19:24:16.175Z,55.88
2023-12-02T19:29:19.123Z,55.68
2023-12-02T19:34:23.429Z,55.50
2023-12-02T19:39:26.323Z,55.09
2023-12-02T19:44:29.119Z,54.95
2023-12-02T19:49:35.502Z,54.78
2023-12-02T19:54:38.482Z,54.63
2023-12-02T19:59:41.415Z,54.20
2023-12-02T20:04:45.844Z,54.08
2023-12-02T20:09:48.819Z,54.02
2023-12-02T20:14:51.983Z,53.87
2023-12-02T20:19:56.264Z,53.61
2023-12-02T20:24:59.099Z,53.17
2023-12-02T20:30:02.015Z,52.93
2023-12-02T20:35:07.268Z,52.85
2023-12-02T20:40:10.983Z,52.27
2023-12-02T20:45:13.885Z,51.77
2023-12-02T20:50:18.137Z,51.61
2023-12-02T20:55:21.528Z,51.74
2023-12-02T21:00:24.374Z,51.80
2023-12-02T21:05:28.612Z,51.57
2023-12-02T21:10:31.515Z,51.59
2023-12-02T21:15:42.756Z,51.86
2023-12-02T21:20:48.394Z,51.74
2023-12-02T21:25:51.294Z,51.78
2023-12-02T21:30:54.267Z,51.52
2023-12-02T21:35:58.682Z,51.76
2023-12-02T21:41:05.661Z,51.60
2023-12-02T21:46:14.048Z,51.44
2023-12-02T21:51:24.791Z,51.38
2023-12-02T21:56:28.230Z,51.66
2023-12-02T22:01:36.733Z,51.48
2023-12-02T22:06:49.240Z,51.39
2023-12-02T22:11:53.074Z,51.29
2023-12-02T22:16:59.164Z,51.49
2023-12-02T22:22:07.763Z,51.20
2023-12-02T22:27:23.116Z,51.31
2023-12-02T22:32:26.646Z,51.27
2023-12-02T22:37:31.403Z,51.38
2023-12-02T22:42:34.229Z,51.09
2023-12-02T22:47:37.142Z,51.41
2023-12-02T22:52:41.340Z,51.59
2023-12-02T22:57:44.421Z,51.24
2023-12-02T23:02:47.524Z,51.39
2023-12-02T23:07:57.871Z,51.37
2023-12-02T23:13:01.529Z,51.43
2023-12-02T23:18:06.618Z,51.65
2023-12-02T23:23:11.147Z,51.37
2023-12-02T23:28:14.007Z,51.81
2023-12-02T23:33:17.695Z,51.70
2023-12-02T23:38:21.941Z,51.80
2023-12-02T23:43:32.389Z,52.07
2023-12-02T23:48:35.448Z,52.11
2023-12-02T23:53:39.733Z,51.97
2023-12-02T23:58:42.933Z,52.13
